sensor_id;sensor_type;location;lat;lon;timestamp;temperature;humidity
53752;DHT22;41095;53.090;6.692;2023-08-24T00:00:51;16.50;99.90
53752;DHT22;41095;53.090;6.692;2023-08-24T00:03:17;16.50;99.90
53752;DHT22;41095;53.090;6.692;2023-08-24T00:05:42;16.40;99.90
53752;DHT22;41095;53.090;6.692;2023-08-24T00:08:10;16.40;99.90
53752;DHT22;41095;53.090;6.692;2023-08-24T00:10:37;16.40;99.90
53752;DHT22;41095;53.090;6.692;2023-08-24T00:13:03;16.30;99.90
53752;DHT22;41095;53.090;6.692;2023-08-24T00:15:29;16.30;99.90
53752;DHT22;41095;53.090;6.692;2023-08-24T00:17:55;16.20;99.90
53752;DHT22;41095;53.090;6.692;2023-08-24T00:20:21;16.20;99.90
53752;DHT22;41095;53.090;6.692;2023-08-24T00:22:48;16.20;99.90
53752;DHT22;41095;53.090;6.692;2023-08-24T00:25:14;16.10;99.90
53752;DHT22;41095;53.090;6.692;2023-08-24T00:27:40;16.00;99.90
53752;DHT22;41095;53.090;6.692;2023-08-24T00:30:07;15.90;99.90
53752;DHT22;41095;53.090;6.692;2023-08-24T00:32:33;15.90;99.90
53752;DHT22;41095;53.090;6.692;2023-08-24T00:35:01;15.90;99.90
53752;DHT22;41095;53.090;6.692;2023-08-24T00:37:27;15.90;99.90
53752;DHT22;41095;53.090;6.692;2023-08-24T00:39:54;15.90;99.90
53752;DHT22;41095;53.090;6.692;2023-08-24T00:42:20;15.90;99.90
53752;DHT22;41095;53.090;6.692;2023-08-24T00:44:48;16.20;99.90
53752;DHT22;41095;53.090;6.692;2023-08-24T00:47:14;15.90;99.90
53752;DHT22;41095;53.090;6.692;2023-08-24T00:49:41;15.90;99.90
53752;DHT22;41095;53.090;6.692;2023-08-24T00:52:07;15.90;99.90
53752;DHT22;41095;53.090;6.692;2023-08-24T00:54:33;15.90;99.90
53752;DHT22;41095;53.090;6.692;2023-08-24T00:57:00;15.90;99.90
53752;DHT22;41095;53.090;6.692;2023-08-24T00:59:26;15.90;99.90
53752;DHT22;41095;53.090;6.692;2023-08-24T01:01:52;15.90;99.90
53752;DHT22;41095;53.090;6.692;2023-08-24T01:04:18;15.90;99.90
53752;DHT22;41095;53.090;6.692;2023-08-24T01:06:43;15.90;99.90
53752;DHT22;41095;53.090;6.692;2023-08-24T01:09:09;15.80;99.90
53752;DHT22;41095;53.090;6.692;2023-08-24T01:11:43;15.80;99.90
53752;DHT22;41095;53.090;6.692;2023-08-24T01:16:43;15.80;99.90
53752;DHT22;41095;53.090;6.692;2023-08-24T01:19:44;15.80;99.90
53752;DHT22;41095;53.090;6.692;2023-08-24T01:22:34;15.90;99.90
53752;DHT22;41095;53.090;6.692;2023-08-24T01:25:17;15.90;99.90
53752;DHT22;41095;53.090;6.692;2023-08-24T01:27:48;16.00;99.90
53752;DHT22;41095;53.090;6.692;2023-08-24T01:30:14;16.00;99.90
53752;DHT22;41095;53.090;6.692;2023-08-24T01:32:40;16.00;99.90
53752;DHT22;41095;53.090;6.692;2023-08-24T01:35:07;16.10;99.90
53752;DHT22;41095;53.090;6.692;2023-08-24T01:37:34;16.10;99.90
53752;DHT22;41095;53.090;6.692;2023-08-24T01:40:10;16.10;99.90
53752;DHT22;41095;53.090;6.692;2023-08-24T01:45:16;16.10;99.90
53752;DHT22;41095;53.090;6.692;2023-08-24T01:47:45;16.10;99.90
53752;DHT22;41095;53.090;6.692;2023-08-24T01:50:13;16.00;99.90
53752;DHT22;41095;53.090;6.692;2023-08-24T01:52:39;16.00;99.90
53752;DHT22;41095;53.090;6.692;2023-08-24T01:55:05;16.00;99.90
53752;DHT22;41095;53.090;6.692;2023-08-24T01:57:31;16.00;99.90
53752;DHT22;41095;53.090;6.692;2023-08-24T01:59:57;16.00;99.90
53752;DHT22;41095;53.090;6.692;2023-08-24T02:02:24;16.00;99.90
53752;DHT22;41095;53.090;6.692;2023-08-24T02:04:49;15.90;99.90
53752;DHT22;41095;53.090;6.692;2023-08-24T02:07:15;15.90;99.90
53752;DHT22;41095;53.090;6.692;2023-08-24T02:09:41;15.90;99.90
53752;DHT22;41095;53.090;6.692;2023-08-24T02:12:07;15.90;99.90
53752;DHT22;41095;53.090;6.692;2023-08-24T02:14:33;15.90;99.90
53752;DHT22;41095;53.090;6.692;2023-08-24T02:16:59;15.90;99.90
53752;DHT22;41095;53.090;6.692;2023-08-24T02:19:24;16.00;99.90
53752;DHT22;41095;53.090;6.692;2023-08-24T02:21:50;16.00;99.90
53752;DHT22;41095;53.090;6.692;2023-08-24T02:24:15;16.00;99.90
53752;DHT22;41095;53.090;6.692;2023-08-24T02:26:41;16.00;99.90
53752;DHT22;41095;53.090;6.692;2023-08-24T02:29:07;16.10;99.90
53752;DHT22;41095;53.090;6.692;2023-08-24T02:31:33;16.10;99.90
53752;DHT22;41095;53.090;6.692;2023-08-24T02:33:58;16.10;99.90
53752;DHT22;41095;53.090;6.692;2023-08-24T02:36:24;16.10;99.90
53752;DHT22;41095;53.090;6.692;2023-08-24T02:38:50;16.10;99.90
53752;DHT22;41095;53.090;6.692;2023-08-24T02:41:15;16.00;99.90
53752;DHT22;41095;53.090;6.692;2023-08-24T02:43:41;16.00;99.90
53752;DHT22;41095;53.090;6.692;2023-08-24T02:46:08;16.10;99.90
53752;DHT22;41095;53.090;6.692;2023-08-24T02:48:35;16.10;99.90
53752;DHT22;41095;53.090;6.692;2023-08-24T02:51:02;16.10;99.90
53752;DHT22;41095;53.090;6.692;2023-08-24T02:53:29;16.00;99.90
53752;DHT22;41095;53.090;6.692;2023-08-24T02:55:58;16.00;99.90
53752;DHT22;41095;53.090;6.692;2023-08-24T02:58:24;16.00;99.90
53752;DHT22;41095;53.090;6.692;2023-08-24T03:00:49;16.00;99.90
53752;DHT22;41095;53.090;6.692;2023-08-24T03:03:15;16.00;99.90
53752;DHT22;41095;53.090;6.692;2023-08-24T03:05:54;16.00;99.90
53752;DHT22;41095;53.090;6.692;2023-08-24T03:08:20;16.00;99.90
53752;DHT22;41095;53.090;6.692;2023-08-24T03:10:46;16.00;99.90
53752;DHT22;41095;53.090;6.692;2023-08-24T03:13:13;16.00;99.90
53752;DHT22;41095;53.090;6.692;2023-08-24T03:15:39;16.10;99.90
53752;DHT22;41095;53.090;6.692;2023-08-24T03:18:05;16.10;99.90
53752;DHT22;41095;53.090;6.692;2023-08-24T03:20:30;16.00;99.90
53752;DHT22;41095;53.090;6.692;2023-08-24T03:22:56;16.10;99.90
53752;DHT22;41095;53.090;6.692;2023-08-24T03:25:23;16.10;99.90
53752;DHT22;41095;53.090;6.692;2023-08-24T03:27:49;16.10;99.90
53752;DHT22;41095;53.090;6.692;2023-08-24T03:30:14;16.20;99.90
53752;DHT22;41095;53.090;6.692;2023-08-24T03:32:40;16.10;99.90
53752;DHT22;41095;53.090;6.692;2023-08-24T03:35:07;16.00;99.90
53752;DHT22;41095;53.090;6.692;2023-08-24T03:37:33;16.00;99.90
53752;DHT22;41095;53.090;6.692;2023-08-24T03:39:59;16.00;99.90
53752;DHT22;41095;53.090;6.692;2023-08-24T03:42:24;15.90;99.90
53752;DHT22;41095;53.090;6.692;2023-08-24T03:44:50;15.90;99.90
53752;DHT22;41095;53.090;6.692;2023-08-24T03:47:16;15.80;99.90
53752;DHT22;41095;53.090;6.692;2023-08-24T03:49:45;15.80;99.90
53752;DHT22;41095;53.090;6.692;2023-08-24T03:52:10;15.80;99.90
53752;DHT22;41095;53.090;6.692;2023-08-24T03:54:36;15.70;99.90
53752;DHT22;41095;53.090;6.692;2023-08-24T03:57:02;15.70;99.90
53752;DHT22;41095;53.090;6.692;2023-08-24T03:59:28;15.70;99.90
53752;DHT22;41095;53.090;6.692;2023-08-24T04:01:53;15.70;99.90
53752;DHT22;41095;53.090;6.692;2023-08-24T04:04:20;15.60;99.90
53752;DHT22;41095;53.090;6.692;2023-08-24T04:06:45;15.70;99.90
53752;DHT22;41095;53.090;6.692;2023-08-24T04:09:11;15.70;99.90
53752;DHT22;41095;53.090;6.692;2023-08-24T04:11:37;15.70;99.90
53752;DHT22;41095;53.090;6.692;2023-08-24T04:14:02;15.70;99.90
53752;DHT22;41095;53.090;6.692;2023-08-24T04:16:28;15.60;99.90
53752;DHT22;41095;53.090;6.692;2023-08-24T04:18:53;15.70;99.90
53752;DHT22;41095;53.090;6.692;2023-08-24T04:21:19;15.60;99.90
53752;DHT22;41095;53.090;6.692;2023-08-24T04:23:45;15.50;99.90
53752;DHT22;41095;53.090;6.692;2023-08-24T04:26:14;15.60;99.90
53752;DHT22;41095;53.090;6.692;2023-08-24T04:28:39;15.50;99.90
53752;DHT22;41095;53.090;6.692;2023-08-24T04:31:05;15.60;99.90
53752;DHT22;41095;53.090;6.692;2023-08-24T04:33:31;15.60;99.90
53752;DHT22;41095;53.090;6.692;2023-08-24T04:35:58;15.60;99.90
53752;DHT22;41095;53.090;6.692;2023-08-24T04:38:23;15.60;99.90
53752;DHT22;41095;53.090;6.692;2023-08-24T04:40:51;15.60;99.90
53752;DHT22;41095;53.090;6.692;2023-08-24T04:43:18;15.70;99.90
53752;DHT22;41095;53.090;6.692;2023-08-24T04:45:46;15.70;99.90
53752;DHT22;41095;53.090;6.692;2023-08-24T04:48:13;15.60;99.90
53752;DHT22;41095;53.090;6.692;2023-08-24T04:50:39;15.60;99.90
53752;DHT22;41095;53.090;6.692;2023-08-24T04:53:05;15.50;99.90
53752;DHT22;41095;53.090;6.692;2023-08-24T04:55:31;15.40;99.90
53752;DHT22;41095;53.090;6.692;2023-08-24T04:57:57;15.30;99.90
53752;DHT22;41095;53.090;6.692;2023-08-24T05:00:22;15.20;99.90
53752;DHT22;41095;53.090;6.692;2023-08-24T05:02:48;15.20;99.90
53752;DHT22;41095;53.090;6.692;2023-08-24T05:05:14;15.30;99.90
53752;DHT22;41095;53.090;6.692;2023-08-24T05:07:40;15.30;99.90
53752;DHT22;41095;53.090;6.692;2023-08-24T05:10:07;15.30;99.90
53752;DHT22;41095;53.090;6.692;2023-08-24T05:12:33;15.30;99.90
53752;DHT22;41095;53.090;6.692;2023-08-24T05:15:02;15.30;99.90
53752;DHT22;41095;53.090;6.692;2023-08-24T05:17:28;15.40;99.90
53752;DHT22;41095;53.090;6.692;2023-08-24T05:19:55;15.40;99.90
53752;DHT22;41095;53.090;6.692;2023-08-24T05:22:20;15.40;99.90
53752;DHT22;41095;53.090;6.692;2023-08-24T05:24:46;15.50;99.90
53752;DHT22;41095;53.090;6.692;2023-08-24T05:27:12;15.50;99.90
53752;DHT22;41095;53.090;6.692;2023-08-24T05:29:37;15.50;99.90
53752;DHT22;41095;53.090;6.692;2023-08-24T05:32:03;15.50;99.90
53752;DHT22;41095;53.090;6.692;2023-08-24T05:34:29;15.60;99.90
53752;DHT22;41095;53.090;6.692;2023-08-24T05:36:55;15.60;99.90
53752;DHT22;41095;53.090;6.692;2023-08-24T05:39:20;15.60;99.90
53752;DHT22;41095;53.090;6.692;2023-08-24T05:41:49;15.70;99.90
53752;DHT22;41095;53.090;6.692;2023-08-24T05:44:16;15.70;99.90
53752;DHT22;41095;53.090;6.692;2023-08-24T05:46:42;15.80;99.90
53752;DHT22;41095;53.090;6.692;2023-08-24T05:49:08;15.90;99.90
53752;DHT22;41095;53.090;6.692;2023-08-24T05:51:34;15.90;99.90
53752;DHT22;41095;53.090;6.692;2023-08-24T05:54:00;16.00;99.90
53752;DHT22;41095;53.090;6.692;2023-08-24T05:56:26;16.00;99.90
53752;DHT22;41095;53.090;6.692;2023-08-24T05:58:52;16.10;99.90
53752;DHT22;41095;53.090;6.692;2023-08-24T06:01:17;16.20;99.90
53752;DHT22;41095;53.090;6.692;2023-08-24T06:03:43;16.30;99.90
53752;DHT22;41095;53.090;6.692;2023-08-24T06:06:09;16.30;99.90
53752;DHT22;41095;53.090;6.692;2023-08-24T06:08:35;16.40;99.90
53752;DHT22;41095;53.090;6.692;2023-08-24T06:11:01;16.50;99.90
53752;DHT22;41095;53.090;6.692;2023-08-24T06:13:27;16.60;99.90
53752;DHT22;41095;53.090;6.692;2023-08-24T06:15:53;16.70;99.90
53752;DHT22;41095;53.090;6.692;2023-08-24T06:18:20;16.70;99.90
53752;DHT22;41095;53.090;6.692;2023-08-24T06:20:46;16.80;99.90
53752;DHT22;41095;53.090;6.692;2023-08-24T06:23:15;16.90;99.90
53752;DHT22;41095;53.090;6.692;2023-08-24T06:25:41;16.90;99.90
53752;DHT22;41095;53.090;6.692;2023-08-24T06:28:07;17.00;99.90
53752;DHT22;41095;53.090;6.692;2023-08-24T06:30:37;17.20;99.90
53752;DHT22;41095;53.090;6.692;2023-08-24T06:33:04;17.30;99.90
53752;DHT22;41095;53.090;6.692;2023-08-24T06:35:30;17.40;99.90
53752;DHT22;41095;53.090;6.692;2023-08-24T06:37:56;17.50;99.90
53752;DHT22;41095;53.090;6.692;2023-08-24T06:40:22;17.60;99.90
53752;DHT22;41095;53.090;6.692;2023-08-24T06:42:48;17.70;99.90
53752;DHT22;41095;53.090;6.692;2023-08-24T06:45:13;17.80;99.90
53752;DHT22;41095;53.090;6.692;2023-08-24T06:47:39;18.00;99.90
53752;DHT22;41095;53.090;6.692;2023-08-24T06:50:06;18.10;99.90
53752;DHT22;41095;53.090;6.692;2023-08-24T06:52:32;18.20;99.90
53752;DHT22;41095;53.090;6.692;2023-08-24T06:54:59;18.30;99.90
53752;DHT22;41095;53.090;6.692;2023-08-24T06:57:24;18.50;99.90
53752;DHT22;41095;53.090;6.692;2023-08-24T06:59:50;18.70;99.90
53752;DHT22;41095;53.090;6.692;2023-08-24T07:02:16;18.80;99.90
53752;DHT22;41095;53.090;6.692;2023-08-24T07:04:43;19.10;99.90
53752;DHT22;41095;53.090;6.692;2023-08-24T07:07:09;19.30;99.90
53752;DHT22;41095;53.090;6.692;2023-08-24T07:09:34;19.70;99.90
53752;DHT22;41095;53.090;6.692;2023-08-24T07:12:02;20.80;99.90
53752;DHT22;41095;53.090;6.692;2023-08-24T07:14:27;22.20;99.90
53752;DHT22;41095;53.090;6.692;2023-08-24T07:16:53;23.50;99.90
53752;DHT22;41095;53.090;6.692;2023-08-24T07:19:19;24.40;99.90
53752;DHT22;41095;53.090;6.692;2023-08-24T07:21:44;25.40;99.90
53752;DHT22;41095;53.090;6.692;2023-08-24T07:24:10;25.90;99.90
53752;DHT22;41095;53.090;6.692;2023-08-24T07:26:36;26.70;99.90
53752;DHT22;41095;53.090;6.692;2023-08-24T07:29:02;27.30;99.90
53752;DHT22;41095;53.090;6.692;2023-08-24T07:31:28;27.30;99.90
53752;DHT22;41095;53.090;6.692;2023-08-24T07:33:53;27.40;99.90
53752;DHT22;41095;53.090;6.692;2023-08-24T07:38:46;28.20;99.90
53752;DHT22;41095;53.090;6.692;2023-08-24T07:41:15;28.20;99.90
53752;DHT22;41095;53.090;6.692;2023-08-24T07:43:43;28.50;99.90
53752;DHT22;41095;53.090;6.692;2023-08-24T07:46:08;29.00;99.60
53752;DHT22;41095;53.090;6.692;2023-08-24T07:48:35;29.30;98.80
53752;DHT22;41095;53.090;6.692;2023-08-24T07:51:00;29.50;97.70
53752;DHT22;41095;53.090;6.692;2023-08-24T07:53:26;29.70;97.50
53752;DHT22;41095;53.090;6.692;2023-08-24T07:55:54;29.60;97.20
53752;DHT22;41095;53.090;6.692;2023-08-24T07:58:20;30.00;96.90
53752;DHT22;41095;53.090;6.692;2023-08-24T08:00:49;30.20;96.50
53752;DHT22;41095;53.090;6.692;2023-08-24T08:03:17;30.40;96.00
53752;DHT22;41095;53.090;6.692;2023-08-24T08:05:42;30.60;95.70
53752;DHT22;41095;53.090;6.692;2023-08-24T08:08:08;30.60;95.40
53752;DHT22;41095;53.090;6.692;2023-08-24T08:10:34;30.70;94.80
53752;DHT22;41095;53.090;6.692;2023-08-24T08:12:59;30.70;94.50
53752;DHT22;41095;53.090;6.692;2023-08-24T08:15:25;30.70;94.40
53752;DHT22;41095;53.090;6.692;2023-08-24T08:17:51;30.70;94.30
53752;DHT22;41095;53.090;6.692;2023-08-24T08:20:16;30.80;94.10
53752;DHT22;41095;53.090;6.692;2023-08-24T08:22:42;31.00;93.80
53752;DHT22;41095;53.090;6.692;2023-08-24T08:25:08;31.10;93.70
53752;DHT22;41095;53.090;6.692;2023-08-24T08:27:34;31.30;93.50
53752;DHT22;41095;53.090;6.692;2023-08-24T08:29:59;31.40;93.20
53752;DHT22;41095;53.090;6.692;2023-08-24T08:32:25;31.40;93.00
53752;DHT22;41095;53.090;6.692;2023-08-24T08:34:54;31.40;93.10
53752;DHT22;41095;53.090;6.692;2023-08-24T08:37:22;31.90;93.00
53752;DHT22;41095;53.090;6.692;2023-08-24T08:39:48;31.80;92.70
53752;DHT22;41095;53.090;6.692;2023-08-24T08:42:14;31.80;92.50
53752;DHT22;41095;53.090;6.692;2023-08-24T08:44:41;31.60;92.30
53752;DHT22;41095;53.090;6.692;2023-08-24T08:47:10;31.60;92.40
53752;DHT22;41095;53.090;6.692;2023-08-24T08:49:38;31.60;92.50
53752;DHT22;41095;53.090;6.692;2023-08-24T08:52:05;31.20;91.90
53752;DHT22;41095;53.090;6.692;2023-08-24T08:54:31;30.60;92.30
53752;DHT22;41095;53.090;6.692;2023-08-24T08:56:59;30.30;92.60
53752;DHT22;41095;53.090;6.692;2023-08-24T08:59:26;30.50;92.80
53752;DHT22;41095;53.090;6.692;2023-08-24T09:01:58;30.80;92.70
53752;DHT22;41095;53.090;6.692;2023-08-24T09:04:31;31.00;92.50
53752;DHT22;41095;53.090;6.692;2023-08-24T09:06:57;31.20;92.30
53752;DHT22;41095;53.090;6.692;2023-08-24T09:09:22;30.60;92.40
53752;DHT22;41095;53.090;6.692;2023-08-24T09:11:48;30.30;92.60
53752;DHT22;41095;53.090;6.692;2023-08-24T09:14:15;29.80;92.80
53752;DHT22;41095;53.090;6.692;2023-08-24T09:16:41;29.60;93.00
53752;DHT22;41095;53.090;6.692;2023-08-24T09:19:07;29.20;93.20
53752;DHT22;41095;53.090;6.692;2023-08-24T09:21:39;29.20;93.60
53752;DHT22;41095;53.090;6.692;2023-08-24T09:24:07;29.00;93.70
53752;DHT22;41095;53.090;6.692;2023-08-24T09:26:35;28.50;93.80
53752;DHT22;41095;53.090;6.692;2023-08-24T09:29:12;28.00;94.20
53752;DHT22;41095;53.090;6.692;2023-08-24T09:31:39;27.60;94.70
53752;DHT22;41095;53.090;6.692;2023-08-24T09:34:08;27.20;95.00
53752;DHT22;41095;53.090;6.692;2023-08-24T09:36:34;26.80;95.30
53752;DHT22;41095;53.090;6.692;2023-08-24T09:39:01;26.60;95.70
53752;DHT22;41095;53.090;6.692;2023-08-24T09:41:40;26.20;96.10
53752;DHT22;41095;53.090;6.692;2023-08-24T09:44:07;25.90;96.50
53752;DHT22;41095;53.090;6.692;2023-08-24T09:46:35;25.60;96.60
53752;DHT22;41095;53.090;6.692;2023-08-24T09:49:05;25.50;97.00
53752;DHT22;41095;53.090;6.692;2023-08-24T09:51:33;25.40;97.10
53752;DHT22;41095;53.090;6.692;2023-08-24T09:53:58;25.30;97.40
53752;DHT22;41095;53.090;6.692;2023-08-24T09:56:28;25.20;97.70
53752;DHT22;41095;53.090;6.692;2023-08-24T09:58:55;25.20;97.90
53752;DHT22;41095;53.090;6.692;2023-08-24T10:01:24;25.10;97.90
53752;DHT22;41095;53.090;6.692;2023-08-24T10:03:51;25.00;98.10
53752;DHT22;41095;53.090;6.692;2023-08-24T10:06:20;25.00;98.20
53752;DHT22;41095;53.090;6.692;2023-08-24T10:08:54;24.90;98.30
53752;DHT22;41095;53.090;6.692;2023-08-24T10:11:26;24.90;98.80
53752;DHT22;41095;53.090;6.692;2023-08-24T10:14:00;24.90;98.70
53752;DHT22;41095;53.090;6.692;2023-08-24T10:16:33;24.80;98.60
53752;DHT22;41095;53.090;6.692;2023-08-24T10:19:02;24.80;98.90
53752;DHT22;41095;53.090;6.692;2023-08-24T10:21:28;24.70;99.00
53752;DHT22;41095;53.090;6.692;2023-08-24T10:23:56;24.70;99.10
53752;DHT22;41095;53.090;6.692;2023-08-24T10:26:23;24.70;99.10
53752;DHT22;41095;53.090;6.692;2023-08-24T10:28:50;24.60;99.20
53752;DHT22;41095;53.090;6.692;2023-08-24T10:31:16;24.50;99.40
53752;DHT22;41095;53.090;6.692;2023-08-24T10:33:44;24.50;99.60
53752;DHT22;41095;53.090;6.692;2023-08-24T10:36:12;24.40;99.80
53752;DHT22;41095;53.090;6.692;2023-08-24T10:38:42;24.40;99.90
53752;DHT22;41095;53.090;6.692;2023-08-24T10:41:08;24.40;99.90
53752;DHT22;41095;53.090;6.692;2023-08-24T10:43:37;24.40;99.90
53752;DHT22;41095;53.090;6.692;2023-08-24T10:46:03;24.30;99.90
53752;DHT22;41095;53.090;6.692;2023-08-24T10:51:22;24.30;99.90
53752;DHT22;41095;53.090;6.692;2023-08-24T10:54:01;24.30;99.90
53752;DHT22;41095;53.090;6.692;2023-08-24T10:56:39;24.30;99.90
53752;DHT22;41095;53.090;6.692;2023-08-24T10:59:17;24.30;99.90
53752;DHT22;41095;53.090;6.692;2023-08-24T11:01:55;24.30;99.90
53752;DHT22;41095;53.090;6.692;2023-08-24T11:04:21;24.30;99.90
53752;DHT22;41095;53.090;6.692;2023-08-24T11:06:54;24.30;99.90
53752;DHT22;41095;53.090;6.692;2023-08-24T11:09:21;24.30;99.90
53752;DHT22;41095;53.090;6.692;2023-08-24T11:12:13;24.30;99.90
53752;DHT22;41095;53.090;6.692;2023-08-24T11:14:49;24.40;99.90
53752;DHT22;41095;53.090;6.692;2023-08-24T11:17:20;24.40;99.90
53752;DHT22;41095;53.090;6.692;2023-08-24T11:19:51;24.50;99.90
53752;DHT22;41095;53.090;6.692;2023-08-24T11:22:17;24.60;99.90
53752;DHT22;41095;53.090;6.692;2023-08-24T11:24:47;24.70;99.90
53752;DHT22;41095;53.090;6.692;2023-08-24T11:27:13;24.80;99.90
53752;DHT22;41095;53.090;6.692;2023-08-24T11:29:38;24.90;99.90
53752;DHT22;41095;53.090;6.692;2023-08-24T11:32:04;25.00;99.90
53752;DHT22;41095;53.090;6.692;2023-08-24T11:34:30;25.10;99.90
53752;DHT22;41095;53.090;6.692;2023-08-24T11:36:57;25.20;99.90
53752;DHT22;41095;53.090;6.692;2023-08-24T11:39:23;25.20;99.90
53752;DHT22;41095;53.090;6.692;2023-08-24T11:42:03;25.30;99.90
53752;DHT22;41095;53.090;6.692;2023-08-24T11:44:29;25.30;99.90
53752;DHT22;41095;53.090;6.692;2023-08-24T11:46:59;25.30;99.90
53752;DHT22;41095;53.090;6.692;2023-08-24T11:49:25;25.30;99.90
53752;DHT22;41095;53.090;6.692;2023-08-24T11:51:51;25.30;99.90
53752;DHT22;41095;53.090;6.692;2023-08-24T11:54:19;25.30;99.90
53752;DHT22;41095;53.090;6.692;2023-08-24T11:56:44;25.40;99.90
53752;DHT22;41095;53.090;6.692;2023-08-24T11:59:16;25.50;99.90
53752;DHT22;41095;53.090;6.692;2023-08-24T12:01:42;25.60;99.90
53752;DHT22;41095;53.090;6.692;2023-08-24T12:04:08;25.70;99.90
53752;DHT22;41095;53.090;6.692;2023-08-24T12:06:34;25.90;99.90
53752;DHT22;41095;53.090;6.692;2023-08-24T12:09:00;26.00;99.90
53752;DHT22;41095;53.090;6.692;2023-08-24T12:11:28;26.00;99.90
53752;DHT22;41095;53.090;6.692;2023-08-24T12:13:55;26.00;99.90
53752;DHT22;41095;53.090;6.692;2023-08-24T12:16:21;26.00;99.90
53752;DHT22;41095;53.090;6.692;2023-08-24T12:18:55;26.00;99.90
53752;DHT22;41095;53.090;6.692;2023-08-24T12:21:22;26.00;99.90
53752;DHT22;41095;53.090;6.692;2023-08-24T12:24:02;26.00;99.90
53752;DHT22;41095;53.090;6.692;2023-08-24T12:26:31;25.90;99.90
53752;DHT22;41095;53.090;6.692;2023-08-24T12:29:03;25.80;99.90
53752;DHT22;41095;53.090;6.692;2023-08-24T12:31:31;25.90;99.90
53752;DHT22;41095;53.090;6.692;2023-08-24T12:34:01;25.80;99.90
53752;DHT22;41095;53.090;6.692;2023-08-24T12:36:29;25.80;99.90
53752;DHT22;41095;53.090;6.692;2023-08-24T12:38:54;25.80;99.90
53752;DHT22;41095;53.090;6.692;2023-08-24T12:41:20;25.80;99.90
53752;DHT22;41095;53.090;6.692;2023-08-24T12:43:46;25.80;99.90
53752;DHT22;41095;53.090;6.692;2023-08-24T12:46:12;25.80;99.90
53752;DHT22;41095;53.090;6.692;2023-08-24T12:48:37;25.70;99.90
53752;DHT22;41095;53.090;6.692;2023-08-24T12:51:03;25.80;99.90
53752;DHT22;41095;53.090;6.692;2023-08-24T12:53:29;25.80;99.90
53752;DHT22;41095;53.090;6.692;2023-08-24T12:55:54;25.80;99.90
53752;DHT22;41095;53.090;6.692;2023-08-24T12:58:20;25.90;99.90
53752;DHT22;41095;53.090;6.692;2023-08-24T13:00:46;26.00;99.90
53752;DHT22;41095;53.090;6.692;2023-08-24T13:03:12;26.10;99.90
53752;DHT22;41095;53.090;6.692;2023-08-24T13:05:38;26.10;99.90
53752;DHT22;41095;53.090;6.692;2023-08-24T13:08:04;26.10;99.90
53752;DHT22;41095;53.090;6.692;2023-08-24T13:10:30;26.00;99.90
53752;DHT22;41095;53.090;6.692;2023-08-24T13:12:55;26.00;99.90
53752;DHT22;41095;53.090;6.692;2023-08-24T13:15:25;26.00;99.90
53752;DHT22;41095;53.090;6.692;2023-08-24T13:17:54;26.00;99.90
53752;DHT22;41095;53.090;6.692;2023-08-24T13:20:20;25.90;99.90
53752;DHT22;41095;53.090;6.692;2023-08-24T13:22:46;25.80;99.90
53752;DHT22;41095;53.090;6.692;2023-08-24T13:25:11;25.70;99.90
53752;DHT22;41095;53.090;6.692;2023-08-24T13:27:37;25.70;99.90
53752;DHT22;41095;53.090;6.692;2023-08-24T13:30:03;25.70;99.90
53752;DHT22;41095;53.090;6.692;2023-08-24T13:32:29;25.60;99.90
53752;DHT22;41095;53.090;6.692;2023-08-24T13:34:55;25.60;99.90
53752;DHT22;41095;53.090;6.692;2023-08-24T13:37:21;25.60;99.90
53752;DHT22;41095;53.090;6.692;2023-08-24T13:39:47;25.60;99.90
53752;DHT22;41095;53.090;6.692;2023-08-24T13:42:13;25.60;99.90
53752;DHT22;41095;53.090;6.692;2023-08-24T13:44:39;25.60;99.90
53752;DHT22;41095;53.090;6.692;2023-08-24T13:47:05;25.60;99.90
53752;DHT22;41095;53.090;6.692;2023-08-24T13:49:30;25.60;99.90
53752;DHT22;41095;53.090;6.692;2023-08-24T13:51:56;25.40;99.90
53752;DHT22;41095;53.090;6.692;2023-08-24T13:54:22;25.80;99.90
53752;DHT22;41095;53.090;6.692;2023-08-24T13:56:48;25.50;99.90
53752;DHT22;41095;53.090;6.692;2023-08-24T13:59:14;26.10;99.90
53752;DHT22;41095;53.090;6.692;2023-08-24T14:01:41;25.70;99.90
53752;DHT22;41095;53.090;6.692;2023-08-24T14:09:00;26.00;99.90
53752;DHT22;41095;53.090;6.692;2023-08-24T14:11:27;26.00;99.90
53752;DHT22;41095;53.090;6.692;2023-08-24T14:18:46;25.90;99.90
53752;DHT22;41095;53.090;6.692;2023-08-24T14:21:12;25.90;99.90
53752;DHT22;41095;53.090;6.692;2023-08-24T14:28:54;25.20;99.90
53752;DHT22;41095;53.090;6.692;2023-08-24T14:31:21;25.40;99.90
53752;DHT22;41095;53.090;6.692;2023-08-24T14:36:13;25.30;99.90
53752;DHT22;41095;53.090;6.692;2023-08-24T14:38:39;25.40;99.90
53752;DHT22;41095;53.090;6.692;2023-08-24T14:41:06;25.30;99.90
53752;DHT22;41095;53.090;6.692;2023-08-24T14:43:33;24.20;99.90
53752;DHT22;41095;53.090;6.692;2023-08-24T14:45:58;25.10;99.90
53752;DHT22;41095;53.090;6.692;2023-08-24T14:48:24;24.70;99.90
53752;DHT22;41095;53.090;6.692;2023-08-24T14:50:50;25.00;99.90
53752;DHT22;41095;53.090;6.692;2023-08-24T14:53:16;24.30;99.90
53752;DHT22;41095;53.090;6.692;2023-08-24T14:55:41;24.90;99.90
53752;DHT22;41095;53.090;6.692;2023-08-24T14:58:08;24.70;99.90
53752;DHT22;41095;53.090;6.692;2023-08-24T15:00:34;25.00;99.90
53752;DHT22;41095;53.090;6.692;2023-08-24T15:03:00;24.50;99.90
53752;DHT22;41095;53.090;6.692;2023-08-24T15:07:52;24.10;99.90
53752;DHT22;41095;53.090;6.692;2023-08-24T15:10:18;24.30;99.90
53752;DHT22;41095;53.090;6.692;2023-08-24T15:12:47;23.90;99.90
53752;DHT22;41095;53.090;6.692;2023-08-24T15:15:12;24.00;99.90
53752;DHT22;41095;53.090;6.692;2023-08-24T15:17:43;24.10;99.90
53752;DHT22;41095;53.090;6.692;2023-08-24T15:20:10;24.10;99.90
53752;DHT22;41095;53.090;6.692;2023-08-24T15:25:05;24.10;99.90
53752;DHT22;41095;53.090;6.692;2023-08-24T15:27:31;24.10;99.90
53752;DHT22;41095;53.090;6.692;2023-08-24T15:29:56;24.20;99.90
53752;DHT22;41095;53.090;6.692;2023-08-24T15:32:22;23.90;99.90
53752;DHT22;41095;53.090;6.692;2023-08-24T15:34:48;24.00;99.90
53752;DHT22;41095;53.090;6.692;2023-08-24T15:37:14;24.00;99.90
53752;DHT22;41095;53.090;6.692;2023-08-24T15:39:40;24.00;99.90
53752;DHT22;41095;53.090;6.692;2023-08-24T15:42:07;24.00;99.90
53752;DHT22;41095;53.090;6.692;2023-08-24T15:44:33;24.10;99.90
53752;DHT22;41095;53.090;6.692;2023-08-24T15:47:00;24.10;99.90
53752;DHT22;41095;53.090;6.692;2023-08-24T15:49:26;24.10;99.90
53752;DHT22;41095;53.090;6.692;2023-08-24T15:51:52;24.00;99.90
53752;DHT22;41095;53.090;6.692;2023-08-24T15:54:18;24.00;99.90
53752;DHT22;41095;53.090;6.692;2023-08-24T15:56:44;23.90;99.90
53752;DHT22;41095;53.090;6.692;2023-08-24T15:59:12;23.90;99.90
53752;DHT22;41095;53.090;6.692;2023-08-24T16:01:38;23.80;99.90